Time,TemperatureF,DewpointF,PressureIn,WindDirection,WindDirectionDegrees,WindSpeedMPH,WindSpeedGustMPH,Humidity,HourlyPrecipIn,Conditions,Clouds,dailyrainin,SoftwareType,DateUTC
2013-11-09 00:00:00,45.8,35.0,29.90,SE,146,3.0,10.0,66,0.00,,,0.00,weatherlink.com 1.10,2013-11-09 06:00:00,
2013-11-09 00:15:00,46.0,35.0,29.88,East,84,2.0,13.0,65,0.00,,,0.00,weatherlink.com 1.10,2013-11-09 06:15:00,
2013-11-09 00:30:00,46.2,35.0,29.88,SSE,149,1.0,15.0,65,0.00,,,0.00,weatherlink.com 1.10,2013-11-09 06:30:00,
2013-11-09 00:45:00,46.5,36.0,29.87,SSE,152,1.0,12.0,66,0.00,,,0.00,weatherlink.com 1.10,2013-11-09 06:45:00,
2013-11-09 01:00:00,46.9,36.0,29.86,SSW,193,11.0,16.0,66,0.00,,,0.00,weatherlink.com 1.10,2013-11-09 07:00:00,
2013-11-09 01:15:00,47.3,36.0,29.85,SSW,202,5.0,16.0,65,0.00,,,0.00,weatherlink.com 1.10,2013-11-09 07:15:00,
2013-11-09 01:30:00,47.3,36.0,29.84,South,187,8.0,12.0,65,0.00,,,0.00,weatherlink.com 1.10,2013-11-09 07:30:00,
2013-11-09 01:45:00,46.9,36.0,29.84,SW,221,5.0,10.0,67,0.00,,,0.00,weatherlink.com 1.10,2013-11-09 07:45:00,
2013-11-09 02:00:00,46.4,36.0,29.84,WSW,257,2.0,9.0,68,0.00,,,0.00,weatherlink.com 1.10,2013-11-09 08:00:00,
2013-11-09 02:15:00,46.1,36.0,29.84,SW,223,3.0,9.0,69,0.00,,,0.00,weatherlink.com 1.10,2013-11-09 08:15:00,
2013-11-09 02:30:00,45.9,37.0,29.83,SSW,193,7.0,8.0,70,0.00,,,0.00,weatherlink.com 1.10,2013-11-09 08:30:00,
2013-11-09 02:45:00,46.0,37.0,29.82,SW,232,3.0,12.0,70,0.00,,,0.00,weatherlink.com 1.10,2013-11-09 08:45:00,
2013-11-09 03:00:00,46.1,37.0,29.82,SSW,213,6.0,11.0,70,0.00,,,0.00,weatherlink.com 1.10,2013-11-09 09:00:00,
2013-11-09 03:15:00,-999.0,-99.9,29.81,North,-999,-999.0,-999.0,-999,0.00,,,0.00,weatherlink.com 1.10,2013-11-09 09:15:00,
2013-11-09 03:30:00,-999.0,-99.9,29.82,North,-999,-999.0,-999.0,-999,0.00,,,0.00,weatherlink.com 1.10,2013-11-09 09:30:00,
2013-11-09 03:45:00,-999.0,-99.9,29.81,North,-999,-999.0,-999.0,-999,0.00,,,0.00,weatherlink.com 1.10,2013-11-09 09:45:00,
2013-11-09 04:01:00,-999.0,-99.9,29.81,North,-999,-999.0,-999.0,-999,0.00,,,0.00,weatherlink.com 1.10,2013-11-09 10:01:00,
2013-11-09 04:16:00,-999.0,-99.9,29.81,North,-999,-999.0,-999.0,-999,0.00,,,0.00,weatherlink.com 1.10,2013-11-09 10:16:00,
2013-11-09 04:31:00,-999.0,-99.9,29.81,North,-999,-999.0,-999.0,-999,0.00,,,0.00,weatherlink.com 1.10,2013-11-09 10:31:00,
2013-11-09 04:46:00,-999.0,-99.9,29.80,North,-999,-999.0,-999.0,-999,0.00,,,0.00,weatherlink.com 1.10,2013-11-09 10:46:00,
2013-11-09 05:01:00,-999.0,-99.9,29.80,North,-999,-999.0,-999.0,-999,0.00,,,0.00,weatherlink.com 1.10,2013-11-09 11:01:00,
2013-11-09 05:16:00,-999.0,-99.9,29.80,North,-999,-999.0,-999.0,-999,0.00,,,0.00,weatherlink.com 1.10,2013-11-09 11:16:00,
2013-11-09 05:31:00,-999.0,-99.9,29.80,North,-999,-999.0,-999.0,-999,0.00,,,0.00,weatherlink.com 1.10,2013-11-09 11:31:00,
2013-11-09 05:46:00,-999.0,-99.9,29.80,North,-999,-999.0,-999.0,-999,0.00,,,0.00,weatherlink.com 1.10,2013-11-09 11:46:00,
2013-11-09 06:01:00,-999.0,-99.9,29.81,North,-999,-999.0,-999.0,-999,0.00,,,0.00,weatherlink.com 1.10,2013-11-09 12:01:00,
2013-11-09 06:16:00,-999.0,-99.9,29.81,North,-999,-999.0,-999.0,-999,0.00,,,0.00,weatherlink.com 1.10,2013-11-09 12:16:00,
2013-11-09 06:31:00,-999.0,-99.9,29.82,North,-999,-999.0,-999.0,-999,0.00,,,0.00,weatherlink.com 1.10,2013-11-09 12:31:00,
2013-11-09 06:46:00,-999.0,-99.9,29.82,North,-999,-999.0,-999.0,-999,0.00,,,0.00,weatherlink.com 1.10,2013-11-09 12:46:00,
2013-11-09 07:01:00,-999.0,-99.9,29.82,North,-999,-999.0,-999.0,-999,0.00,,,0.00,weatherlink.com 1.10,2013-11-09 13:01:00,
2013-11-09 07:16:00,44.4,39.0,29.82,West,273,7.0,13.0,80,0.00,,,0.00,weatherlink.com 1.10,2013-11-09 13:16:00,
2013-11-09 07:31:00,44.8,39.0,29.82,WNW,300,2.0,11.0,80,0.00,,,0.00,weatherlink.com 1.10,2013-11-09 13:31:00,
2013-11-09 07:46:00,45.1,40.0,29.82,WSW,248,4.0,10.0,81,0.00,,,0.00,weatherlink.com 1.10,2013-11-09 13:46:00,
2013-11-09 08:02:00,45.0,40.0,29.82,West,267,5.0,9.0,81,0.00,,,0.00,weatherlink.com 1.10,2013-11-09 14:02:00,
2013-11-09 08:17:00,45.4,40.0,29.82,West,263,4.0,8.0,82,0.00,,,0.00,weatherlink.com 1.10,2013-11-09 14:17:00,
2013-11-09 08:32:00,46.0,41.0,29.83,West,266,7.0,13.0,81,0.00,,,0.00,weatherlink.com 1.10,2013-11-09 14:32:00,
2013-11-09 08:47:00,46.4,41.0,29.83,West,272,1.0,12.0,81,0.00,,,0.00,weatherlink.com 1.10,2013-11-09 14:47:00,
2013-11-09 09:02:00,46.6,41.0,29.83,WNW,286,6.0,18.0,80,0.00,,,0.00,weatherlink.com 1.10,2013-11-09 15:02:00,
2013-11-09 09:17:00,46.9,40.0,29.83,WSW,254,4.0,18.0,78,0.00,,,0.00,weatherlink.com 1.10,2013-11-09 15:17:00,
2013-11-09 09:32:00,47.3,41.0,29.83,West,279,3.0,14.0,78,0.00,,,0.00,weatherlink.com 1.10,2013-11-09 15:32:00,
2013-11-09 09:47:00,48.0,41.0,29.84,WSW,247,12.0,13.0,76,0.00,,,0.00,weatherlink.com 1.10,2013-11-09 15:47:00,
2013-11-09 10:02:00,48.1,41.0,29.84,West,273,5.0,13.0,75,0.00,,,0.00,weatherlink.com 1.10,2013-11-09 16:02:00,
2013-11-09 10:17:00,48.3,40.0,29.85,WSW,247,10.0,14.0,74,0.00,,,0.00,weatherlink.com 1.10,2013-11-09 16:17:00,
2013-11-09 10:32:00,48.6,40.0,29.85,WSW,254,9.0,17.0,73,0.00,,,0.00,weatherlink.com 1.10,2013-11-09 16:32:00,
2013-11-09 10:47:00,48.7,40.0,29.85,West,279,9.0,13.0,73,0.00,,,0.00,weatherlink.com 1.10,2013-11-09 16:47:00,
2013-11-09 11:02:00,48.8,40.0,29.85,West,261,14.0,20.0,72,0.00,,,0.00,weatherlink.com 1.10,2013-11-09 17:02:00,
2013-11-09 11:17:00,49.2,41.0,29.84,West,263,4.0,15.0,72,0.00,,,0.00,weatherlink.com 1.10,2013-11-09 17:17:00,
2013-11-09 11:33:00,50.3,41.0,29.85,West,273,5.0,17.0,70,0.00,,,0.00,weatherlink.com 1.10,2013-11-09 17:33:00,
2013-11-09 11:47:00,50.8,41.0,29.84,West,272,6.0,14.0,69,0.00,,,0.00,weatherlink.com 1.10,2013-11-09 17:47:00,
2013-11-09 12:02:00,51.2,41.0,29.84,WSW,257,5.0,16.0,67,0.00,,,0.00,weatherlink.com 1.10,2013-11-09 18:02:00,
2013-11-09 12:17:00,51.0,40.0,29.84,NNW,334,3.0,17.0,67,0.00,,,0.00,weatherlink.com 1.10,2013-11-09 18:17:00,
2013-11-09 12:32:00,50.9,41.0,29.85,West,261,7.0,18.0,68,0.00,,,0.00,weatherlink.com 1.10,2013-11-09 18:32:00,
2013-11-09 12:47:00,50.7,40.0,29.85,West,263,6.0,19.0,67,0.00,,,0.00,weatherlink.com 1.10,2013-11-09 18:47:00,
2013-11-09 13:17:00,51.2,40.0,29.86,West,269,5.0,14.0,65,0.00,,,0.00,weatherlink.com 1.10,2013-11-09 19:17:00,
2013-11-09 13:32:00,51.2,39.0,29.86,West,268,14.0,20.0,64,0.00,,,0.00,weatherlink.com 1.10,2013-11-09 19:32:00,
2013-11-09 14:02:00,50.4,40.0,29.88,WSW,250,3.0,20.0,67,0.00,,,0.00,weatherlink.com 1.10,2013-11-09 20:02:00,
2013-11-09 14:17:00,50.0,39.0,29.89,West,269,9.0,15.0,67,0.00,,,0.00,weatherlink.com 1.10,2013-11-09 20:17:00,
2013-11-09 14:32:00,49.5,40.0,29.89,West,273,10.0,19.0,69,0.00,,,0.00,weatherlink.com 1.10,2013-11-09 20:32:00,
2013-11-09 14:47:00,49.3,40.0,29.90,West,275,5.0,12.0,70,0.00,,,0.00,weatherlink.com 1.10,2013-11-09 20:47:00,
2013-11-09 15:02:00,49.3,40.0,29.90,WSW,250,3.0,9.0,70,0.00,,,0.00,weatherlink.com 1.10,2013-11-09 21:02:00,
2013-11-09 15:17:00,49.5,40.0,29.91,SW,224,5.0,11.0,69,0.00,,,0.00,weatherlink.com 1.10,2013-11-09 21:17:00,
2013-11-09 15:32:00,49.1,39.0,29.91,SW,222,5.0,14.0,68,0.00,,,0.00,weatherlink.com 1.10,2013-11-09 21:32:00,
2013-11-09 15:48:00,48.9,39.0,29.91,WSW,243,6.0,17.0,68,0.00,,,0.00,weatherlink.com 1.10,2013-11-09 21:48:00,
2013-11-09 16:03:00,48.7,39.0,29.92,WSW,258,9.0,14.0,68,0.00,,,0.00,weatherlink.com 1.10,2013-11-09 22:03:00,
2013-11-09 16:19:00,48.4,39.0,29.93,West,273,3.0,9.0,69,0.00,,,0.00,weatherlink.com 1.10,2013-11-09 22:19:00,
2013-11-09 17:03:00,47.9,39.0,29.95,WNW,286,2.0,9.0,72,0.00,,,0.00,weatherlink.com 1.10,2013-11-09 23:03:00,
2013-11-09 17:18:00,47.6,39.0,29.95,West,281,5.0,8.0,71,0.00,,,0.00,weatherlink.com 1.10,2013-11-09 23:18:00,
2013-11-09 17:33:00,47.3,38.0,29.96,West,267,5.0,13.0,69,0.00,,,0.00,weatherlink.com 1.10,2013-11-09 23:33:00,
2013-11-09 17:48:00,46.9,38.0,29.97,WSW,244,7.0,14.0,70,0.00,,,0.00,weatherlink.com 1.10,2013-11-09 23:48:00,
2013-11-09 18:03:00,46.6,37.0,29.97,West,267,7.0,12.0,70,0.00,,,0.00,weatherlink.com 1.10,2013-11-10 00:03:00,
2013-11-09 18:18:00,46.3,37.0,29.98,WSW,242,3.0,20.0,71,0.00,,,0.00,weatherlink.com 1.10,2013-11-10 00:18:00,
2013-11-09 18:33:00,46.0,37.0,29.99,SW,232,6.0,11.0,71,0.00,,,0.00,weatherlink.com 1.10,2013-11-10 00:33:00,
2013-11-09 18:48:00,45.8,37.0,29.99,West,269,4.0,13.0,71,0.00,,,0.00,weatherlink.com 1.10,2013-11-10 00:48:00,
2013-11-09 19:03:00,45.5,37.0,30.00,WSW,241,11.0,14.0,71,0.00,,,0.00,weatherlink.com 1.10,2013-11-10 01:03:00,
2013-11-09 19:18:00,45.2,36.0,30.00,NNW,329,5.0,11.0,71,0.00,,,0.00,weatherlink.com 1.10,2013-11-10 01:18:00,
2013-11-09 19:33:00,44.9,35.0,30.00,West,276,11.0,16.0,69,0.00,,,0.00,weatherlink.com 1.10,2013-11-10 01:33:00,
2013-11-09 19:48:00,43.6,30.0,30.01,WSW,246,7.0,22.0,60,0.00,,,0.00,weatherlink.com 1.10,2013-11-10 01:48:00,
2013-11-09 20:03:00,43.1,30.0,30.01,West,269,1.0,18.0,61,0.00,,,0.00,weatherlink.com 1.10,2013-11-10 02:03:00,
2013-11-09 20:18:00,42.8,31.0,30.01,WSW,242,6.0,12.0,63,0.00,,,0.00,weatherlink.com 1.10,2013-11-10 02:18:00,
2013-11-09 20:33:00,42.6,31.0,30.02,WSW,247,7.0,14.0,64,0.00,,,0.00,weatherlink.com 1.10,2013-11-10 02:33:00,
2013-11-09 20:48:00,42.5,31.0,30.02,SW,236,4.0,15.0,65,0.00,,,0.00,weatherlink.com 1.10,2013-11-10 02:48:00,
2013-11-09 21:03:00,42.2,31.0,30.02,WNW,282,4.0,10.0,66,0.00,,,0.00,weatherlink.com 1.10,2013-11-10 03:03:00,
2013-11-09 21:18:00,42.0,32.0,30.03,WNW,296,4.0,15.0,67,0.00,,,0.00,weatherlink.com 1.10,2013-11-10 03:18:00,
2013-11-09 21:33:00,41.9,32.0,30.03,West,265,3.0,17.0,67,0.00,,,0.00,weatherlink.com 1.10,2013-11-10 03:33:00,
2013-11-09 21:48:00,41.7,30.0,30.04,WSW,257,8.0,16.0,64,0.00,,,0.00,weatherlink.com 1.10,2013-11-10 03:48:00,
2013-11-09 22:03:00,41.3,29.0,30.05,WSW,255,7.0,18.0,61,0.00,,,0.00,weatherlink.com 1.10,2013-11-10 04:03:00,
2013-11-09 22:18:00,40.9,27.0,30.06,NW,325,5.0,23.0,58,0.00,,,0.00,weatherlink.com 1.10,2013-11-10 04:18:00,
2013-11-09 22:33:00,40.6,27.0,30.06,WNW,296,6.0,18.0,58,0.00,,,0.00,weatherlink.com 1.10,2013-11-10 04:33:00,
2013-11-09 22:48:00,40.4,27.0,30.07,WSW,256,15.0,18.0,59,0.00,,,0.00,weatherlink.com 1.10,2013-11-10 04:48:00,
2013-11-09 23:03:00,40.4,27.0,30.07,NW,319,6.0,15.0,60,0.00,,,0.00,weatherlink.com 1.10,2013-11-10 05:03:00,
2013-11-09 23:19:00,40.4,27.0,30.07,West,280,4.0,19.0,60,0.00,,,0.00,weatherlink.com 1.10,2013-11-10 05:19:00,
2013-11-09 23:34:00,40.2,28.0,30.08,West,269,5.0,11.0,61,0.00,,,0.00,weatherlink.com 1.10,2013-11-10 05:34:00,
2013-11-09 23:49:00,39.9,28.0,30.08,NNW,338,4.0,8.0,62,0.00,,,0.00,weatherlink.com 1.10,2013-11-10 05:49:00,